createdAt,value
2019-01-03T00:02:39.127Z,2.13
2019-01-03T00:05:27.325Z,2.00
2019-01-03T00:08:31.607Z,6.60
2019-01-03T00:11:20.085Z,3.90
2019-01-03T00:14:07.581Z,2.90
2019-01-03T00:16:59.185Z,2.57
2019-01-03T00:19:46.306Z,6.93
2019-01-03T00:22:31.856Z,2.70
2019-01-03T00:25:20.868Z,2.67
2019-01-03T00:28:21.618Z,2.33
2019-01-03T00:31:10.343Z,2.10
2019-01-03T00:33:58.897Z,2.43
2019-01-03T00:36:47.701Z,2.03
2019-01-03T00:39:33.357Z,4.60
2019-01-03T00:42:34.321Z,5.60
2019-01-03T00:45:22.091Z,2.40
2019-01-03T00:48:25.802Z,2.20
2019-01-03T00:51:16.603Z,2.80
2019-01-03T00:54:04.715Z,6.27
2019-01-03T00:57:02.270Z,3.23
2019-01-03T01:00:00.537Z,2.40
2019-01-03T01:02:55.201Z,2.07
2019-01-03T01:05:43.472Z,1.70
2019-01-03T01:08:30.354Z,4.40
2019-01-03T01:11:24.960Z,2.00
2019-01-03T01:14:20.488Z,3.57
2019-01-03T01:17:15.507Z,2.77
2019-01-03T01:20:07.793Z,2.20
2019-01-03T01:23:03.453Z,2.23
2019-01-03T01:25:53.274Z,1.87
2019-01-03T01:28:54.205Z,2.37
2019-01-03T01:31:41.610Z,3.90
2019-01-03T01:34:28.322Z,2.70
2019-01-03T01:37:32.517Z,2.00
2019-01-03T01:40:14.206Z,2.67
2019-01-03T01:43:12.102Z,4.10
2019-01-03T01:46:01.027Z,4.43
2019-01-03T01:49:07.995Z,3.73
2019-01-03T01:52:08.752Z,5.70
2019-01-03T01:54:56.126Z,4.57
2019-01-03T01:57:43.655Z,2.27
2019-01-03T02:00:32.514Z,2.67
2019-01-03T02:03:36.589Z,2.37
2019-01-03T02:06:24.401Z,2.27
2019-01-03T02:09:11.682Z,2.47
2019-01-03T02:12:00.596Z,2.50
2019-01-03T02:14:59.529Z,6.93
2019-01-03T02:18:03.868Z,2.97
2019-01-03T02:20:58.274Z,2.37
2019-01-03T02:23:59.710Z,2.70
2019-01-03T02:26:55.600Z,4.17
2019-01-03T02:29:42.939Z,2.60
2019-01-03T02:32:37.929Z,16.90
2019-01-03T02:35:38.348Z,2.33
2019-01-03T02:38:26.769Z,4.10
2019-01-03T02:41:15.902Z,2.33
2019-01-03T02:44:07.920Z,7.50
2019-01-03T02:47:05.981Z,3.57
2019-01-03T02:50:05.808Z,2.90
2019-01-03T02:52:58.232Z,3.13
2019-01-03T02:55:56.435Z,7.23
2019-01-03T02:58:45.315Z,2.80
2019-01-03T03:01:43.575Z,2.90
2019-01-03T03:04:44.588Z,4.03
2019-01-03T03:07:36.228Z,3.03
2019-01-03T03:10:28.410Z,3.17
2019-01-03T03:13:23.394Z,3.00
2019-01-03T03:16:28.725Z,4.37
2019-01-03T03:19:36.770Z,4.50
2019-01-03T03:22:28.415Z,3.70
2019-01-03T03:25:15.226Z,5.23
2019-01-03T03:28:16.000Z,2.97
2019-01-03T03:31:10.991Z,2.63
2019-01-03T03:34:05.240Z,6.63
2019-01-03T03:37:00.117Z,6.33
2019-01-03T03:39:54.997Z,4.70
2019-01-03T03:42:40.059Z,6.73
2019-01-03T03:45:47.223Z,5.17
2019-01-03T03:48:42.273Z,2.90
2019-01-03T03:51:29.806Z,3.60
2019-01-03T03:54:37.166Z,4.03
2019-01-03T03:57:23.058Z,3.87
2019-01-03T04:00:11.894Z,6.87
2019-01-03T04:03:13.182Z,5.03
2019-01-03T04:06:00.483Z,3.23
2019-01-03T04:09:04.577Z,3.27
2019-01-03T04:11:56.730Z,2.87
2019-01-03T04:14:57.625Z,6.30
2019-01-03T04:17:57.013Z,4.20
2019-01-03T04:20:57.926Z,4.80
2019-01-03T04:23:45.123Z,4.47
2019-01-03T04:26:32.702Z,11.53
2019-01-03T04:29:36.630Z,9.07
2019-01-03T04:32:24.272Z,5.40
2019-01-03T04:35:19.188Z,3.87
2019-01-03T04:38:14.061Z,5.90
2019-01-03T04:41:01.422Z,9.43
2019-01-03T04:43:48.893Z,3.20
2019-01-03T04:46:34.517Z,21.33
2019-01-03T04:49:23.415Z,19.70
2019-01-03T04:52:16.721Z,11.03
2019-01-03T04:55:11.962Z,4.80
2019-01-03T04:57:59.316Z,5.70
2019-01-03T05:01:06.490Z,8.43
2019-01-03T05:03:58.346Z,6.33
2019-01-03T05:06:50.903Z,5.57
2019-01-03T05:09:50.733Z,3.13
2019-01-03T05:12:52.055Z,8.33
2019-01-03T05:15:34.803Z,3.77
2019-01-03T05:18:42.015Z,2.80
2019-01-03T05:21:30.081Z,5.90
2019-01-03T05:24:18.218Z,7.33
2019-01-03T05:27:10.089Z,9.07
2019-01-03T05:30:01.687Z,3.23
2019-01-03T05:32:49.165Z,4.30
2019-01-03T05:35:36.425Z,3.90
2019-01-03T05:38:23.886Z,58.17
2019-01-03T05:41:24.710Z,4.93
2019-01-03T05:44:12.811Z,6.40
2019-01-03T05:47:02.225Z,5.10
2019-01-03T05:49:57.942Z,6.97
2019-01-03T05:52:55.586Z,6.73
2019-01-03T05:55:47.477Z,4.53
2019-01-03T05:58:34.990Z,8.33
2019-01-03T06:01:32.886Z,10.73
2019-01-03T06:04:30.873Z,20.53
2019-01-03T06:07:35.187Z,36.50
2019-01-03T06:10:26.978Z,34.20
2019-01-03T06:13:18.647Z,18.13
2019-01-03T06:16:06.158Z,10.20
2019-01-03T06:18:53.634Z,20.90
2019-01-03T06:21:48.518Z,73.30
2019-01-03T06:24:36.101Z,12.43
2019-01-03T06:27:27.933Z,10.03
2019-01-03T06:30:16.796Z,14.70
2019-01-03T06:33:04.226Z,9.23
2019-01-03T06:35:53.853Z,15.13
2019-01-03T06:38:41.512Z,4.87
2019-01-03T06:41:40.693Z,5.17
2019-01-03T06:44:35.661Z,4.47
2019-01-03T06:47:23.167Z,5.50
2019-01-03T06:50:29.961Z,9.20
2019-01-03T06:53:30.628Z,9.47
2019-01-03T06:56:19.493Z,6.40
2019-01-03T06:59:07.509Z,14.40
2019-01-03T07:01:56.395Z,7.53
2019-01-03T07:04:51.014Z,2.67
2019-01-03T07:07:40.205Z,23.83
2019-01-03T07:10:28.481Z,5.60
2019-01-03T07:13:16.260Z,13.73
2019-01-03T07:16:00.157Z,7.60
2019-01-03T07:19:07.445Z,15.10
2019-01-03T07:22:05.517Z,59.03
2019-01-03T07:24:53.124Z,26.27
2019-01-03T07:27:57.000Z,11.03
2019-01-03T07:30:45.392Z,10.00
2019-01-03T07:33:37.345Z,17.13
2019-01-03T07:36:30.043Z,21.27
2019-01-03T07:39:24.957Z,19.60
2019-01-03T07:42:23.396Z,9.77
2019-01-03T07:45:15.539Z,13.67
2019-01-03T07:48:03.351Z,11.33
2019-01-03T07:50:50.669Z,8.30
2019-01-03T07:53:42.234Z,7.37
2019-01-03T07:56:42.885Z,10.13
2019-01-03T07:59:43.934Z,21.00
2019-01-03T08:02:31.324Z,23.03
2019-01-03T08:05:19.581Z,34.90
2019-01-03T08:08:08.395Z,11.50
2019-01-03T08:11:00.228Z,21.60
2019-01-03T08:13:49.083Z,14.80
2019-01-03T08:16:43.662Z,6.90
2019-01-03T08:19:47.894Z,10.50
2019-01-03T08:22:39.483Z,9.43
2019-01-03T08:25:37.337Z,23.53
2019-01-03T08:28:38.514Z,18.43
2019-01-03T08:31:36.849Z,21.93
2019-01-03T08:34:26.542Z,32.97
2019-01-03T08:37:30.373Z,15.07
2019-01-03T08:40:31.168Z,9.10
2019-01-03T08:43:27.217Z,41.30
2019-01-03T08:46:22.514Z,34.27
2019-01-03T08:49:17.321Z,16.40
2019-01-03T08:52:06.177Z,10.30
2019-01-03T08:55:04.237Z,21.37
2019-01-03T08:57:53.484Z,7.03
2019-01-03T09:00:55.305Z,24.23
2019-01-03T09:03:43.449Z,45.97
2019-01-03T09:06:31.657Z,20.97
2019-01-03T09:09:16.449Z,55.77
2019-01-03T09:12:08.406Z,29.63
2019-01-03T09:14:57.242Z,24.13
2019-01-03T09:17:44.716Z,85.70
2019-01-03T09:20:32.506Z,23.03
2019-01-03T09:23:20.161Z,21.40
2019-01-03T09:26:09.145Z,16.80
2019-01-03T09:28:58.339Z,15.87
2019-01-03T09:31:51.491Z,12.77
2019-01-03T09:34:40.311Z,6.67
2019-01-03T09:37:31.906Z,10.47
2019-01-03T09:40:19.197Z,23.77
2019-01-03T09:43:06.938Z,21.73
2019-01-03T09:45:43.982Z,21.87
2019-01-03T09:48:08.995Z,16.23
2019-01-03T09:50:39.050Z,15.10
2019-01-03T09:53:09.269Z,15.97
2019-01-03T09:55:39.481Z,11.93
2019-01-03T09:58:09.390Z,17.47
2019-01-03T10:00:39.498Z,7.47
2019-01-03T10:03:09.813Z,15.47
2019-01-03T10:05:39.824Z,10.67
2019-01-03T10:08:09.993Z,8.53
2019-01-03T10:10:40.964Z,13.53
2019-01-03T10:13:11.433Z,18.70
2019-01-03T10:15:41.521Z,17.90
2019-01-03T10:18:11.896Z,10.13
2019-01-03T10:20:43.509Z,13.97
2019-01-03T10:23:13.944Z,16.10
2019-01-03T10:25:44.855Z,12.30
2019-01-03T10:28:17.273Z,22.87
2019-01-03T10:30:48.197Z,13.10
2019-01-03T10:33:18.867Z,11.10
2019-01-03T10:35:51.453Z,18.20
2019-01-03T10:38:21.866Z,31.43
2019-01-03T10:40:52.284Z,10.60
2019-01-03T10:43:23.029Z,8.73
2019-01-03T10:45:52.990Z,8.97
2019-01-03T10:48:23.196Z,14.47
2019-01-03T10:50:53.998Z,27.37
2019-01-03T10:53:23.973Z,16.33
2019-01-03T10:55:54.004Z,16.07
2019-01-03T10:58:24.080Z,11.83
2019-01-03T11:00:55.151Z,20.20
2019-01-03T11:03:26.002Z,22.67
2019-01-03T11:05:58.133Z,24.10
2019-01-03T11:08:28.911Z,10.57
2019-01-03T11:11:02.208Z,9.00
2019-01-03T11:13:31.527Z,8.00
2019-01-03T11:16:01.454Z,10.83
2019-01-03T11:18:31.468Z,10.30
2019-01-03T11:21:01.450Z,29.67
2019-01-03T11:23:31.429Z,26.37
2019-01-03T11:26:01.767Z,26.40
2019-01-03T11:28:31.761Z,18.27
2019-01-03T11:31:02.143Z,17.83
2019-01-03T11:33:32.837Z,24.90
2019-01-03T11:36:03.154Z,29.47
2019-01-03T11:38:33.187Z,17.30
2019-01-03T11:41:03.585Z,15.23
2019-01-03T11:43:33.524Z,23.27
2019-01-03T11:46:03.524Z,30.47
2019-01-03T11:48:34.445Z,13.83
2019-01-03T11:51:04.821Z,26.50
2019-01-03T11:53:34.772Z,14.97
2019-01-03T11:56:04.762Z,11.07
2019-01-03T11:58:35.161Z,15.83
2019-01-03T12:01:05.451Z,11.60
2019-01-03T12:03:35.962Z,16.53
2019-01-03T12:06:06.370Z,12.53
2019-01-03T12:08:36.363Z,17.03
2019-01-03T12:11:06.325Z,10.20
2019-01-03T12:13:36.482Z,11.53
2019-01-03T12:16:06.497Z,11.17
2019-01-03T12:18:36.963Z,13.87
2019-01-03T12:21:06.940Z,15.00
2019-01-03T12:23:37.361Z,19.43
2019-01-03T12:26:07.538Z,16.20
2019-01-03T12:28:37.914Z,22.70
2019-01-03T12:31:07.953Z,16.17
2019-01-03T12:33:37.941Z,10.43
2019-01-03T12:36:08.001Z,15.30
2019-01-03T12:38:38.021Z,10.37
2019-01-03T12:41:08.145Z,11.53
2019-01-03T12:43:38.189Z,8.80
2019-01-03T12:46:08.834Z,12.53
2019-01-03T12:48:38.796Z,9.93
2019-01-03T12:51:09.373Z,7.60
2019-01-03T12:53:39.708Z,18.97
2019-01-03T12:56:09.742Z,11.70
2019-01-03T12:58:40.125Z,19.40
2019-01-03T13:01:10.338Z,10.97
2019-01-03T13:03:40.345Z,18.73
2019-01-03T13:06:10.286Z,15.30
2019-01-03T13:08:40.253Z,12.27
2019-01-03T13:11:10.821Z,7.70
2019-01-03T13:13:41.316Z,14.80
2019-01-03T13:16:11.366Z,9.70
2019-01-03T13:18:44.049Z,11.33
2019-01-03T13:21:14.022Z,11.60
2019-01-03T13:23:44.028Z,16.53
2019-01-03T13:26:13.980Z,9.87
2019-01-03T13:28:44.350Z,14.97
2019-01-03T13:31:14.337Z,9.97
2019-01-03T13:33:44.349Z,18.90
2019-01-03T13:36:14.356Z,15.10
2019-01-03T13:38:44.285Z,17.70
2019-01-03T13:41:14.262Z,22.53
2019-01-03T13:43:44.304Z,13.80
2019-01-03T13:46:14.302Z,12.67
2019-01-03T13:48:44.305Z,9.27
2019-01-03T13:51:14.273Z,10.20
2019-01-03T13:53:44.598Z,8.63
2019-01-03T13:56:15.519Z,9.07
2019-01-03T13:58:45.597Z,6.50
2019-01-03T14:01:15.892Z,10.13
2019-01-03T14:03:45.845Z,15.70
2019-01-03T14:06:16.213Z,15.03
2019-01-03T14:08:46.399Z,9.17
2019-01-03T14:11:16.358Z,8.20
2019-01-03T14:13:46.881Z,9.17
2019-01-03T14:16:17.311Z,8.73
2019-01-03T14:18:47.425Z,8.03
2019-01-03T14:21:17.477Z,10.20
2019-01-03T14:23:47.498Z,10.50
2019-01-03T14:26:17.417Z,14.73
2019-01-03T14:28:47.452Z,12.23
2019-01-03T14:31:17.768Z,10.27
2019-01-03T14:33:47.789Z,14.73
2019-01-03T14:36:17.940Z,10.40
2019-01-03T14:38:47.955Z,5.63
2019-01-03T14:41:17.972Z,10.23
2019-01-03T14:43:48.129Z,4.93
2019-01-03T14:46:18.535Z,14.80
2019-01-03T14:48:48.753Z,6.67
2019-01-03T14:51:18.870Z,12.80
2019-01-03T14:53:48.841Z,9.17
2019-01-03T14:56:18.801Z,6.23
2019-01-03T14:58:49.141Z,6.70
2019-01-03T15:01:19.327Z,10.23
2019-01-03T15:03:49.273Z,8.40
2019-01-03T15:06:19.222Z,11.30
2019-01-03T15:08:49.234Z,11.80
2019-01-03T15:11:19.149Z,8.37
2019-01-03T15:13:49.291Z,9.90
2019-01-03T15:16:19.221Z,11.63
2019-01-03T15:18:51.343Z,12.00
2019-01-03T15:21:22.618Z,8.03
2019-01-03T15:23:52.608Z,10.87
2019-01-03T15:26:22.613Z,19.70
2019-01-03T15:28:52.529Z,13.47
2019-01-03T15:31:22.492Z,12.83
2019-01-03T15:33:52.685Z,6.90
2019-01-03T15:36:22.674Z,11.63
2019-01-03T15:38:52.628Z,21.20
2019-01-03T15:41:23.122Z,14.43
2019-01-03T15:43:53.360Z,8.27
2019-01-03T15:46:24.264Z,23.20
2019-01-03T15:48:54.202Z,20.50
2019-01-03T15:51:24.637Z,12.63
2019-01-03T15:53:55.128Z,12.10
2019-01-03T15:56:25.352Z,6.43
2019-01-03T15:58:55.322Z,8.83
2019-01-03T16:01:25.260Z,13.10
2019-01-03T16:03:55.436Z,25.23
2019-01-03T16:06:25.553Z,25.33
2019-01-03T16:08:55.493Z,14.60
2019-01-03T16:11:25.997Z,11.90
2019-01-03T16:13:55.947Z,15.10
2019-01-03T16:16:25.950Z,9.10
2019-01-03T16:18:56.098Z,9.77
2019-01-03T16:21:26.123Z,8.27
2019-01-03T16:23:56.049Z,18.03
2019-01-03T16:26:25.964Z,17.00
2019-01-03T16:28:56.027Z,24.07
2019-01-03T16:31:26.276Z,10.67
2019-01-03T16:33:56.254Z,9.77
2019-01-03T16:36:26.205Z,7.83
2019-01-03T16:38:56.164Z,13.83
2019-01-03T16:41:26.342Z,13.90
2019-01-03T16:43:56.394Z,13.33
2019-01-03T16:46:26.485Z,17.23
2019-01-03T16:48:56.641Z,53.93
2019-01-03T16:51:26.605Z,10.53
2019-01-03T16:53:56.680Z,19.13
2019-01-03T16:56:26.634Z,9.27
2019-01-03T16:58:56.571Z,38.07
2019-01-03T17:01:27.185Z,38.33
2019-01-03T17:03:57.205Z,14.63
2019-01-03T17:06:27.126Z,14.23
2019-01-03T17:08:57.145Z,18.77
2019-01-03T17:11:27.105Z,12.47
2019-01-03T17:13:57.298Z,18.70
2019-01-03T17:16:27.199Z,19.77
2019-01-03T17:18:57.309Z,13.10
2019-01-03T17:21:28.144Z,28.57
2019-01-03T17:23:58.233Z,22.67
2019-01-03T17:26:28.902Z,40.43
2019-01-03T17:29:00.238Z,37.57
2019-01-03T17:31:31.258Z,65.27
2019-01-03T17:34:01.393Z,23.13
2019-01-03T17:36:32.305Z,28.70
2019-01-03T17:39:02.469Z,16.43
2019-01-03T17:41:32.978Z,28.93
2019-01-03T17:44:03.757Z,17.63
2019-01-03T17:46:34.219Z,13.23
2019-01-03T17:49:06.839Z,16.00
2019-01-03T17:51:38.531Z,96.47
2019-01-03T17:54:08.569Z,69.30
2019-01-03T17:56:38.603Z,41.73
2019-01-03T17:59:08.562Z,45.13
2019-01-03T18:01:38.563Z,45.10
2019-01-03T18:04:08.905Z,28.53
2019-01-03T18:06:41.631Z,14.80
2019-01-03T18:09:14.725Z,9.97
2019-01-03T18:11:45.240Z,14.40
2019-01-03T18:14:15.258Z,8.37
2019-01-03T18:16:45.203Z,57.30
2019-01-03T18:19:15.164Z,85.57
2019-01-03T18:21:45.746Z,30.10
2019-01-03T18:24:16.401Z,31.13
2019-01-03T18:26:46.389Z,36.43
2019-01-03T18:29:16.357Z,34.20
2019-01-03T18:31:46.586Z,21.93
2019-01-03T18:34:16.641Z,14.90
2019-01-03T18:36:46.665Z,18.00
2019-01-03T18:39:16.641Z,31.10
2019-01-03T18:41:47.165Z,73.30
2019-01-03T18:44:18.022Z,84.57
2019-01-03T18:46:48.737Z,88.77
2019-01-03T18:49:21.986Z,77.30
2019-01-03T18:51:52.289Z,30.83
2019-01-03T18:54:25.373Z,19.23
2019-01-03T18:56:55.559Z,31.97
2019-01-03T18:59:25.804Z,22.30
2019-01-03T19:01:55.872Z,41.10
2019-01-03T19:04:25.832Z,28.97
2019-01-03T19:06:55.790Z,41.43
2019-01-03T19:09:25.717Z,37.00
2019-01-03T19:11:56.453Z,54.20
2019-01-03T19:14:26.470Z,140.37
2019-01-03T19:16:56.464Z,150.17
2019-01-03T19:19:26.454Z,146.93
2019-01-03T19:21:56.873Z,85.90
2019-01-03T19:24:26.949Z,81.83
2019-01-03T19:27:01.000Z,127.40
2019-01-03T19:29:34.181Z,74.00
2019-01-03T19:32:04.421Z,82.77
2019-01-03T19:34:37.771Z,71.93
2019-01-03T19:37:13.780Z,111.33
2019-01-03T19:39:43.738Z,96.30
2019-01-03T19:42:16.309Z,54.93
2019-01-03T19:44:46.384Z,44.77
2019-01-03T19:47:24.334Z,40.73
2019-01-03T19:50:06.531Z,67.73
2019-01-03T19:52:41.123Z,75.37
2019-01-03T19:55:13.119Z,65.93
2019-01-03T19:57:43.402Z,30.23
2019-01-03T20:00:15.075Z,32.07
2019-01-03T20:02:49.079Z,16.23
2019-01-03T20:05:22.874Z,17.57
2019-01-03T20:07:56.161Z,11.60
2019-01-03T20:10:26.129Z,11.57
2019-01-03T20:12:59.964Z,8.47
2019-01-03T20:15:30.095Z,15.90
2019-01-03T20:18:03.230Z,13.13
2019-01-03T20:20:44.429Z,10.90
2019-01-03T20:23:16.186Z,10.10
2019-01-03T20:25:46.362Z,9.67
2019-01-03T20:28:39.581Z,26.60
2019-01-03T20:31:29.817Z,8.80
2019-01-03T20:34:00.117Z,11.90
2019-01-03T20:36:30.258Z,6.57
2019-01-03T20:39:00.272Z,9.83
2019-01-03T20:41:35.237Z,7.90
2019-01-03T20:44:08.744Z,10.10
2019-01-03T20:46:39.825Z,4.40
2019-01-03T20:49:13.461Z,7.60
2019-01-03T20:51:44.506Z,8.40
2019-01-03T20:54:14.690Z,9.70
2019-01-03T20:56:47.079Z,14.70
2019-01-03T20:59:20.381Z,7.90
2019-01-03T21:01:54.500Z,7.63
2019-01-03T21:04:27.414Z,7.53
2019-01-03T21:06:59.858Z,8.40
2019-01-03T21:09:35.607Z,5.40
2019-01-03T21:12:08.850Z,6.10
2019-01-03T21:14:42.354Z,8.60
2019-01-03T21:17:14.974Z,7.80
2019-01-03T21:19:46.154Z,10.23
2019-01-03T21:22:16.661Z,6.10
2019-01-03T21:24:46.945Z,7.70
2019-01-03T21:27:20.990Z,13.00
2019-01-03T21:29:52.934Z,7.10
2019-01-03T21:32:26.517Z,4.00
2019-01-03T21:34:57.634Z,4.93
2019-01-03T21:37:29.913Z,5.70
2019-01-03T21:40:00.273Z,6.00
2019-01-03T21:42:34.978Z,7.90
2019-01-03T21:45:09.305Z,4.80
2019-01-03T21:47:41.873Z,4.63
2019-01-03T21:50:13.818Z,6.83
2019-01-03T21:52:46.559Z,6.70
2019-01-03T21:55:18.447Z,3.70
2019-01-03T21:57:49.369Z,6.87
2019-01-03T22:00:20.336Z,4.40
2019-01-03T22:02:51.074Z,3.70
2019-01-03T22:05:23.022Z,5.60
2019-01-03T22:07:55.078Z,6.23
2019-01-03T22:10:25.422Z,5.93
2019-01-03T22:12:56.073Z,3.33
2019-01-03T22:15:26.383Z,5.60
2019-01-03T22:17:59.386Z,4.33
2019-01-03T22:20:29.379Z,3.77
2019-01-03T22:22:59.910Z,9.50
2019-01-03T22:25:30.238Z,4.43
2019-01-03T22:28:03.601Z,4.73
2019-01-03T22:30:33.629Z,3.50
2019-01-03T22:33:05.299Z,4.57
2019-01-03T22:35:35.404Z,7.13
2019-01-03T22:38:06.465Z,3.77
2019-01-03T22:40:36.838Z,4.93
2019-01-03T22:43:07.643Z,4.47
2019-01-03T22:45:39.150Z,5.67
2019-01-03T22:48:10.290Z,4.73
2019-01-03T22:50:40.577Z,5.70
2019-01-03T22:53:11.573Z,5.30
2019-01-03T22:55:41.588Z,5.23
2019-01-03T22:58:12.121Z,5.80
2019-01-03T23:00:47.875Z,4.50
2019-01-03T23:03:17.839Z,3.70
2019-01-03T23:05:47.989Z,4.77
2019-01-03T23:08:18.040Z,5.43
2019-01-03T23:10:49.038Z,4.03
2019-01-03T23:13:19.461Z,5.60
2019-01-03T23:15:49.394Z,5.47
2019-01-03T23:18:19.287Z,7.07
2019-01-03T23:20:49.258Z,3.50
2019-01-03T23:23:19.193Z,5.30
2019-01-03T23:25:49.154Z,9.40
2019-01-03T23:28:19.141Z,5.93
2019-01-03T23:30:49.272Z,4.50
2019-01-03T23:33:19.278Z,3.67
2019-01-03T23:35:49.626Z,3.93
2019-01-03T23:38:20.726Z,11.33
2019-01-03T23:40:50.699Z,4.10
2019-01-03T23:43:20.685Z,5.40
2019-01-03T23:45:51.949Z,4.60
2019-01-03T23:48:21.956Z,4.60
2019-01-03T23:50:52.013Z,5.70
2019-01-03T23:53:21.930Z,4.90
2019-01-03T23:55:59.605Z,4.43
2019-01-03T23:58:30.406Z,5.83
